LPPRLPMA

Guest
Details From LPPR - Porto
To LPMA - Madeira
Flight Number -
Tags decoded
Created
Modified
Stats Distance 643 nm / 1,191 km
Max Altitude 0 ft / 0 m
Waypoints 5
Social Downloads 2
Likes 0
Share VATSIM

Download

Looking for another format? Having issues loading an existing format? Contact us
Advertisement - Login to hide

Notes

Requested: LPPR TOVBA LAMDI MARUM LIDRO LPMA Unmatched points: TOVBA

Route

LPPR LAMDI MARUM LIDRO LPMA

ID Type Via Altitude Latitude Longitude Leg Dist Tot Dist Heading (true) Name
O LPPR APT - 0 ft / 0 m 41.24793˚ -8.68122˚ - 0 nm - Porto
LAMDI FIX - 0 ft / 0 m 39.20583˚ -10.96500˚ 161 nm 161 nm 221° / 220° -
MARUM FIX - 0 ft / 0 m 36.62222˚ -13.43778˚ 194 nm 355 nm 218° / 216° -
LIDRO FIX - 0 ft / 0 m 33.66750˚ -15.94972˚ 216 nm 571 nm 216° / 214° -
O LPMA APT - 0 ft / 0 m 32.69770˚ -16.77445˚ 71 nm 643 nm 216° / 215° Madeira

Altitude Profile

Advertisement - Login to hide

Weather


0- 5 10 15 20 25 30 35+ Temperature / ° C

Clouds and Precipitation
Forecast for 2018-05-26 18:00 UTC. Updated 3 hours ago

Ground ~20,000 ft ~40,000 ft Winds

LPPR

Details ICAO LPPR (OPO)
Name Porto
Region Portugal
Timezone Europe/Lisbon (UTC+1.0)
Stats Elevation 228 ft / 69 m (AMSL)
Location 41.247932° -8.681221°
Runways 1
Magnetic Variation 2.281° W

METAR

LPPR 261930Z 30004KT 270V340 9999 FEW017 FEW020TCU SCT045 17/15 Q1014

Decode

TAF

TAF LPPR 261700Z 2618/2718 29008KT 9999 SCT018 BECMG 2618/2620 VRB03KT FEW015 BECMG 2702/2704 5000 BR SCT002 BKN004 PROB30 TEMPO 2704/2708 0400 FG VV001 BECMG 2709/2711 33012KT 9999 NSW SCT006 SCT012 BECMG 2713/2715 SCT018

Decode

Departure Runways

ID Width Length Bearing (true) Bearing (mag) Surface Threshold Offset Overrun Length
17 148 ft / 45 m 11,451 ft / 3,490 m 168.88° 171.16° Asphalt 984 ft / 300 m 220 ft / 67 m
35 148 ft / 45 m 11,451 ft / 3,490 m 348.89° 351.17° Asphalt 492 ft / 150 m 370 ft / 113 m

LPMA

Details ICAO LPMA (FNC)
Name Madeira
Region Portugal
Timezone Atlantic/Madeira (UTC+1.0)
Stats Elevation 192 ft / 59 m (AMSL)
Location 32.697704° -16.774449°
Runways 1
Magnetic Variation 4.927° W

METAR

LPMA 261930Z 36009KT 310V020 9999 SCT016 17/10 Q1019

Decode

TAF

TAF LPMA 261700Z 2618/2718 36012KT 9999 SCT016 SCT030 TEMPO 2618/2708 BKN015 PROB30 TEMPO 2708/2718 36015G25KT

Decode

Destination Runways

ID Width Length Bearing (true) Bearing (mag) Surface Threshold Offset Overrun Length
05 141 ft / 43 m 8,683 ft / 2,647 m 42.98° 47.91° Asphalt 472 ft / 144 m 0 ft / 0 m
23 141 ft / 43 m 8,683 ft / 2,647 m 222.99° 227.92° Asphalt 466 ft / 142 m 0 ft / 0 m

Popular Alternatives